• Join FlightAware (Why Join?)
  • Login
  • US Flag 
01:31PM EDT


 

Airport Tracker/Info


-or-


 

Live Flight TrackerFlight Track Log ✈ EJA829P ✈ 11-Jul-2013 ✈ KPNE - KBDR

Flight Track Log - Related Links

Times and Time Zones

All times are in EDT time to prevent confusion due to time zone crossing. See the EJA829P flight status page for this flight to view local times or setup timezone preferences in your user account.

Time Position Orientation Groundspeed Altitude Reporting Facility
EDT Latitude Longitude Course Direction KTS MPH feet Rate Location/Type
01:18PM 40.0667 -75.0333 270° West 184 212 800  Level Philadelphia TRACON
01:19PM 40.0667 -75.0833 270° West 204 235 3,600 2,160 Climbing Philadelphia TRACON
01:20PM 40.1167 -75.1167 333° Northwest 240 276 5,000 1,200 Climbing Philadelphia TRACON
01:21PM 40.1500 -75.0333 62° Northeast 273 314 6,000 960 Climbing Philadelphia TRACON
01:22PM 40.1667 -74.9333 78° East 281 323 7,000 480 Climbing Philadelphia TRACON
01:23PM 40.1667 -74.8333 90° East 294 338 7,000 120 Level Philadelphia TRACON
01:24PM 40.1000 -74.8000 159° South 283 326 7,300 1,140 Climbing Philadelphia TRACON
01:25PM 40.0125 -74.7711 166° South 317 365 9,400 1,260 Climbing New York Center
01:26PM 39.9256 -74.7500 169° South 317 365 10,000 420 Climbing New York Center
01:27PM 39.8308 -74.7175 165° South 331 381 10,300 480 Climbing New York Center
01:28PM 39.7969 -74.6022 111° Southeast 312 359 11,000 300 Climbing New York Center
01:29PM 39.8239 -74.4792 74° East 293 337 11,000  Level New York Center
01:30PM 39.8544 -74.3728 69° East 315 362 11,000  Level New York Center
01:31PM 39.8875 -74.2392 72° East 338 389 11,000  Level New York Center
01:32PM 39.9158 -74.1294 71° East 344 396 11,000  Level New York Center
01:33PM 39.9464 -74.0064 72° East 350 403 11,000  Level New York Center
01:34PM 39.9792 -73.8725 72° East 355 409 11,100  Climbing New York Center
01:35PM 40.0072 -73.7492 73° East 355 409 11,100  Level New York Center
01:36PM 40.0514 -73.6561 58° Northeast 334 384 11,100 -60 Level New York Center
01:37PM 40.1469 -73.4878 53° Northeast 347 399 11,000 -60 Descending Boston Center
01:38PM 40.2061 -73.3883 52° Northeast 342 394 11,000  Level Boston Center
01:39PM 40.2528 -73.3128 51° Northeast 337 388 11,000  Level Boston Center
01:40PM 40.3222 -73.1939 53° Northeast 337 388 11,000  Level Boston Center
01:41PM 40.3792 -73.0967 52° Northeast 337 388 11,000  Level Boston Center
01:42PM 40.4358 -72.9964 53° Northeast 337 388 11,000 -180 Level Boston Center
01:43PM 40.4928 -72.8986 53° Northeast 337 388 10,700 -840 Descending Boston Center
01:45PM 40.5200 -72.7800 37° Northeast  Level FlightAware Approximate
01:46PM 40.6500 -72.7000 296° West 293 337 8,100  Level New York TRACON
01:47PM 40.7333 -72.7000 360° North 281 323 7,000 -1,020 Descending New York TRACON
01:48PM 40.8000 -72.7000 360° North 272 313 6,100 -1,020 Descending New York TRACON
01:49PM 40.8833 -72.7000 360° North 275 316 5,000 -720 Descending New York TRACON
01:51PM 41.0167 -72.7167 355° North 267 307 4,100 -300 Descending New York TRACON
01:52PM 41.0202 -72.7372 296° West  Level FlightAware Approximate
01:52PM 41.0833 -72.7667 331° Northwest 264 304 4,100  Level New York TRACON
01:53PM 41.1500 -72.8333 323° Northwest 267 307 4,000 -540 Descending New York TRACON
01:54PM 41.2000 -72.8833 323° Northwest 257 296 3,100 -480 Descending New York TRACON
01:55PM 41.2500 -72.9333 323° Northwest 197 227 3,100 -120 Level New York TRACON
01:56PM 41.2667 -72.9833 294° West 209 241 2,900 -600 Descending New York TRACON
01:57PM 41.2333 -73.0333 228° Southwest 184 212 1,900 -720 Descending New York TRACON
01:58PM 41.2000 -73.0667 217° Southwest 141 162 1,500 -600 Descending New York TRACON
01:59PM 41.1833 -73.1000 236° Southwest 119 137 800 -540 Descending New York TRACON
02:00PM 41.1500 -73.1167 201° Southwest 122 140 500 -300 Descending New York TRACON